| time (UTC) | temp C | wind direction | speed KPH | gust KPH | rain 1hr cm | rain 24hr cm | rain mn cm | humidity % | barometer mb |
| 20260906102607 | 15 | 180 | 4.8 | 8.0 | 0.15 | 2.01 | 2.01 | 79 | 1005.2 |
| 20260906101544 | 15 | 180 | 6.4 | 12.9 | 0.15 | 2.01 | 2.01 | 80 | 1005.2 |
| 20260906100632 | 15 | 180 | 8.0 | 16.1 | 0.15 | 2.01 | 2.01 | 81 | 1005.1 |
| 20260906095544 | 14 | 193 | 8.0 | 17.7 | 0.15 | 2.01 | 2.01 | 80 | 1005.2 |
| 20260906094607 | 15 | 197 | 14.5 | 27.4 | 0.15 | 1.98 | 1.98 | 75 | 1005.0 |
| 20260906093544 | 15 | 180 | 11.3 | 17.7 | 0.05 | 1.85 | 1.85 | 75 | 1004.8 |
| 20260906092607 | 15 | 180 | 14.5 | 22.5 | 0.18 | 1.85 | 1.85 | 74 | 1004.8 |
| 20260906091544 | 15 | 180 | 12.9 | 19.3 | 0.33 | 1.85 | 1.85 | 75 | 1004.7 |
| 20260906090700 | 15 | 180 | 16.1 | 20.9 | 0.33 | 1.85 | 1.85 | 80 | 1004.6 |
| 20260906085544 | 15 | 180 | 9.7 | 12.9 | 0.33 | 1.88 | 1.85 | 84 | 1004.5 |
| 20260906084609 | 14 | 180 | 4.8 | 8.0 | 0.30 | 1.85 | 1.83 | 85 | 1004.5 |
| 20260906083607 | 14 | 180 | 6.4 | 11.3 | 0.28 | 1.83 | 1.80 | 81 | 1004.5 |
| 20260906082608 | 15 | 180 | 11.3 | 17.7 | 0.15 | 1.70 | 1.68 | 73 | 1004.6 |
| 20260906081544 | 15 | 180 | 14.5 | 20.9 | 0.00 | 1.55 | 1.52 | 72 | 1004.4 |
| 20260906080607 | 15 | 180 | 11.3 | 16.1 | 0.00 | 1.55 | 1.52 | 72 | 1004.4 |
| 20260906075603 | 15 | 183 | 8.0 | 12.9 | 0.00 | 1.55 | 1.52 | 73 | 1004.3 |
| 20260906074607 | 15 | 166 | 8.0 | 17.7 | 0.00 | 1.55 | 1.52 | 74 | 1004.2 |
| 20260906073544 | 15 | 145 | 9.7 | 12.9 | 0.05 | 1.55 | 1.52 | 76 | 1004.2 |
| 20260906072608 | 15 | 180 | 11.3 | 17.7 | 0.05 | 1.55 | 1.52 | 77 | 1004.2 |
| 20260906071651 | 15 | 180 | 11.3 | 12.9 | 0.05 | 1.55 | 1.52 | 81 | 1004.2 |
| 20260906070608 | 15 | 180 | 8.0 | 12.9 | 0.05 | 1.55 | 1.52 | 83 | 1004.4 |
| 20260906065543 | 14 | 180 | 6.4 | 9.7 | 0.05 | 1.55 | 1.52 | 83 | 1004.4 |
| 20260906064608 | 14 | 180 | 8.0 | 14.5 | 0.05 | 1.60 | 1.52 | 81 | 1004.3 |
| 20260906063543 | 15 | 189 | 9.7 | 12.9 | 0.00 | 1.55 | 1.47 | 79 | 1004.3 |
| 20260906062607 | 15 | 180 | 12.9 | 16.1 | 0.00 | 1.60 | 1.47 | 80 | 1004.2 |
| 20260906061604 | 15 | 180 | 11.3 | 17.7 | 0.00 | 1.63 | 1.47 | 81 | 1004.1 |
| 20260906060608 | 14 | 180 | 8.0 | 12.9 | 0.00 | 1.65 | 1.47 | 82 | 1004.1 |
| 20260906055632 | 14 | 180 | 9.7 | 16.1 | 0.00 | 1.70 | 1.47 | 83 | 1004.1 |
| 20260906054628 | 14 | 180 | 12.9 | 17.7 | 0.00 | 1.80 | 1.47 | 84 | 1004.1 |
| 20260906053632 | 14 | 180 | 12.9 | 20.9 | 0.00 | 1.88 | 1.47 | 86 | 1004.1 |
| 20260906052607 | 13 | 180 | 8.0 | 12.9 | 0.00 | 2.03 | 1.47 | 87 | 1004.0 |
| 20260906051544 | 13 | 180 | 9.7 | 16.1 | 0.03 | 2.11 | 1.47 | 90 | 1004.0 |
| 20260906050628 | 13 | 180 | 6.4 | 11.3 | 0.10 | 2.21 | 1.47 | 93 | 1004.0 |
| 20260906045544 | 13 | 180 | 6.4 | 9.7 | 0.18 | 2.36 | 1.47 | 95 | 1004.0 |
| 20260906044628 | 13 | 180 | 4.8 | 8.0 | 0.20 | 2.49 | 1.47 | 96 | 1004.1 |
| 20260906043543 | 13 | 180 | 8.0 | 12.9 | 0.33 | 2.59 | 1.47 | 96 | 1004.1 |
| 20260906042613 | 13 | 186 | 3.2 | 6.4 | 0.38 | 2.69 | 1.47 | 95 | 1004.1 |
| 20260906041544 | 12 | 180 | 4.8 | 8.0 | 0.56 | 2.72 | 1.45 | 93 | 1004.0 |
| 20260906040607 | 13 | 180 | 4.8 | 6.4 | 0.51 | 2.67 | 1.37 | 92 | 1003.9 |
| 20260906035544 | 13 | 180 | 6.4 | 8.0 | 0.43 | 2.62 | 1.30 | 91 | 1004.0 |
| 20260906034607 | 13 | 180 | 6.4 | 8.0 | 0.38 | 2.59 | 1.27 | 90 | 1003.9 |
| 20260906033604 | 13 | 180 | 8.0 | 11.3 | 0.28 | 2.46 | 1.14 | 88 | 1003.9 |
| 20260906032608 | 13 | 180 | 3.2 | 6.4 | 0.20 | 2.39 | 1.09 | 85 | 1003.8 |
| 20260906031631 | 13 | 180 | 6.4 | 9.7 | 0.00 | 2.18 | 0.86 | 85 | 1003.7 |
| 20260906030611 | 13 | 180 | 3.2 | 8.0 | 0.00 | 2.18 | 0.86 | 84 | 1003.7 |
| 20260906025632 | 13 | 180 | 4.8 | 8.0 | 0.00 | 2.18 | 0.86 | 84 | 1003.6 |
| 20260906024628 | 13 | 180 | 3.2 | 6.4 | 0.00 | 2.18 | 0.86 | 84 | 1003.5 |
| 20260906023632 | 13 | 180 | 3.2 | 4.8 | 0.00 | 2.18 | 0.86 | 84 | 1003.5 |
| 20260906022613 | 13 | 180 | 4.8 | 8.0 | 0.00 | 2.18 | 0.86 | 84 | 1003.5 |
| 20260906021631 | 13 | 180 | 3.2 | 6.4 | 0.00 | 2.18 | 0.86 | 83 | 1003.5 |
| 20260906020613 | 13 | 180 | 4.8 | 6.4 | 0.03 | 2.18 | 0.86 | 84 | 1003.6 |
| 20260906015635 | 13 | 180 | 4.8 | 6.4 | 0.03 | 2.18 | 0.86 | 84 | 1003.6 |
| 20260906014608 | 13 | 180 | 3.2 | 4.8 | 0.03 | 2.18 | 0.86 | 85 | 1003.5 |
| 20260906013651 | 13 | 180 | 4.8 | 8.0 | 0.03 | 2.18 | 0.86 | 86 | 1003.5 |
| 20260906012608 | 12 | 180 | 3.2 | 6.4 | 0.03 | 2.18 | 0.86 | 88 | 1003.5 |
| 20260906011632 | 12 | 180 | 3.2 | 6.4 | 0.03 | 2.18 | 0.86 | 90 | 1003.5 |
| 20260906010608 | 12 | 180 | 3.2 | 4.8 | 0.03 | 2.16 | 0.84 | 90 | 1003.4 |
| 20260906005631 | 12 | 180 | 1.6 | 4.8 | 0.05 | 2.16 | 0.84 | 90 | 1003.3 |
| 20260906004608 | 12 | 180 | 0.0 | 3.2 | 0.15 | 2.16 | 0.84 | 89 | 1003.3 |
| 20260906003635 | 12 | 180 | 1.6 | 3.2 | 0.23 | 2.16 | 0.84 | 92 | 1003.2 |
| 20260906002608 | 12 | 180 | 1.6 | 3.2 | 0.28 | 2.16 | 0.84 | 91 | 1003.2 |
| 20260906001720 | 12 | 180 | 3.2 | 8.0 | 0.38 | 2.16 | 0.84 | 90 | 1003.3 |
| 20260906000619 | 12 | 185 | 3.2 | 8.0 | 0.43 | 2.13 | 0.81 | 89 | 1003.3 |
| 20260905235648 | 12 | 173 | 3.2 | 8.0 | 0.46 | 2.11 | 0.79 | 87 | 1003.2 |
| 20260905234611 | 12 | 196 | 6.4 | 11.3 | 0.38 | 2.01 | 0.69 | 84 | 1003.2 |
| 20260905233720 | 12 | 180 | 1.6 | 4.8 | 0.38 | 1.93 | 0.61 | 84 | 1002.9 |
| 20260905232656 | 12 | 180 | 4.8 | 8.0 | 0.56 | 1.88 | 0.56 | 83 | 1002.9 |
| 20260905231652 | 13 | 180 | 6.4 | 8.0 | 0.46 | 1.78 | 0.46 | 84 | 1002.9 |
| 20260905230611 | 13 | 180 | 4.8 | 8.0 | 0.38 | 1.70 | 0.38 | 85 | 1002.9 |
| 20260905225631 | 13 | 180 | 4.8 | 8.0 | 0.33 | 1.65 | 0.33 | 85 | 1002.8 |
| 20260905224609 | 13 | 180 | 3.2 | 4.8 | 0.30 | 1.63 | 0.30 | 82 | 1002.8 |
| 20260905223633 | 13 | 260 | 3.2 | 9.7 | 0.20 | 1.52 | 0.20 | 80 | 1002.9 |
| 20260905222608 | 15 | 169 | 6.4 | 11.3 | 0.00 | 1.32 | 0.00 | 76 | 1002.8 |
| 20260905221632 | 15 | 172 | 11.3 | 16.1 | 0.00 | 1.32 | 0.00 | 75 | 1002.8 |
| 20260905220608 | 15 | 181 | 9.7 | 14.5 | 0.00 | 1.32 | 0.00 | 75 | 1002.8 |
| 20260905215808 | 15 | 180 | 6.4 | 12.9 | 0.00 | 1.32 | 0.00 | 75 | 1002.7 |
| 20260905214628 | 15 | 177 | 6.4 | 12.9 | 0.00 | 1.32 | 0.00 | 76 | 1002.7 |
| 20260905213632 | 15 | 180 | 8.0 | 12.9 | 0.00 | 1.32 | 0.00 | 77 | 1002.7 |
| 20260905212656 | 15 | 180 | 8.0 | 8.0 | 0.00 | 1.32 | 0.00 | 77 | 1002.7 |
| 20260905211829 | 15 | 180 | 9.7 | 11.3 | 0.00 | 1.32 | 0.00 | 77 | 1002.8 |
| 20260905211514 | 15 | 180 | 12.9 | 14.5 | 0.00 | 1.32 | 0.00 | 75 | 1002.7 |